createdAt,value
2022-10-05T00:00:53.611Z,99132.41
2022-10-05T00:03:22.509Z,99135.66
2022-10-05T00:05:49.525Z,99133.25
2022-10-05T00:08:19.934Z,99141.66
2022-10-05T00:10:46.626Z,99144.09
2022-10-05T00:13:17.085Z,99132.16
2022-10-05T00:15:45.507Z,99134.63
2022-10-05T00:18:21.959Z,99133.81
2022-10-05T00:20:49.044Z,99130.53
2022-10-05T00:23:24.878Z,99138.16
2022-10-05T00:25:51.594Z,99137.06
2022-10-05T00:28:36.276Z,99129.50
2022-10-05T00:31:02.784Z,99130.31
2022-10-05T00:33:29.254Z,99126.78
2022-10-05T00:35:55.781Z,99124.88
2022-10-05T00:38:22.503Z,99120.81
2022-10-05T00:41:14.873Z,99121.69
2022-10-05T00:44:00.909Z,99124.94
2022-10-05T00:47:06.208Z,99127.94
2022-10-05T00:49:48.945Z,99129.53
2022-10-05T00:52:24.518Z,99126.84
2022-10-05T00:55:06.809Z,99121.97
2022-10-05T00:57:49.872Z,99123.34
2022-10-05T01:00:20.073Z,99118.75
2022-10-05T01:03:19.929Z,99118.47
2022-10-05T01:06:22.540Z,99124.19
2022-10-05T01:09:32.879Z,99122.06
2022-10-05T01:12:17.682Z,99135.31
2022-10-05T01:15:11.045Z,99131.28
2022-10-05T01:17:41.920Z,99126.91
2022-10-05T01:20:45.658Z,99127.47
2022-10-05T01:23:46.338Z,99125.03
2022-10-05T01:26:30.884Z,99125.84
2022-10-05T01:29:06.361Z,99111.78
2022-10-05T01:31:45.566Z,99113.41
2022-10-05T01:34:35.901Z,99108.81
2022-10-05T01:37:23.509Z,99122.09
2022-10-05T01:40:15.072Z,99118.03
2022-10-05T01:42:55.047Z,99116.66
2022-10-05T01:45:43.509Z,99123.47
2022-10-05T01:48:22.491Z,99122.09
2022-10-05T01:51:17.134Z,99113.44
2022-10-05T01:54:13.147Z,99114.53
2022-10-05T01:56:50.544Z,99106.13
2022-10-05T01:59:48.350Z,99109.63
2022-10-05T02:02:18.939Z,99101.56
2022-10-05T02:05:01.883Z,99097.75
2022-10-05T02:08:00.213Z,99098.84
2022-10-05T02:10:42.196Z,99099.38
2022-10-05T02:13:18.630Z,99104.25
2022-10-05T02:15:49.996Z,99099.38
2022-10-05T02:18:22.767Z,99102.38
2022-10-05T02:20:53.267Z,99098.03
2022-10-05T02:23:23.954Z,99089.38
2022-10-05T02:25:54.412Z,99086.41
2022-10-05T02:28:34.613Z,99083.16
2022-10-05T02:31:15.778Z,99082.06
2022-10-05T02:33:42.314Z,99071.53
2022-10-05T02:36:16.609Z,99076.13
2022-10-05T02:39:01.334Z,99074.50
2022-10-05T02:41:39.955Z,99071.53
2022-10-05T02:44:26.952Z,99070.44
2022-10-05T02:47:09.145Z,99069.09
2022-10-05T02:49:51.404Z,99070.19
2022-10-05T02:52:40.504Z,99078.56
2022-10-05T02:55:16.038Z,99090.75
2022-10-05T02:57:56.645Z,99087.50
2022-10-05T03:00:25.453Z,99080.47
2022-10-05T03:03:15.458Z,99085.88
2022-10-05T03:05:51.600Z,99099.69
2022-10-05T03:08:25.958Z,99098.06
2022-10-05T03:11:00.669Z,99098.88
2022-10-05T03:13:52.621Z,99098.34
2022-10-05T03:16:31.119Z,99092.13
2022-10-05T03:19:03.833Z,99091.03
2022-10-05T03:21:56.247Z,99088.34
2022-10-05T03:24:47.961Z,99097.25
2022-10-05T03:27:23.646Z,99088.31
2022-10-05T03:30:19.654Z,99084.81
2022-10-05T03:33:09.568Z,99076.97
2022-10-05T03:35:48.590Z,99068.03
2022-10-05T03:38:30.173Z,99061.00
2022-10-05T03:41:08.186Z,99061.00
2022-10-05T03:44:04.707Z,99057.22
2022-10-05T03:46:50.730Z,99058.31
2022-10-05T03:49:35.741Z,99055.88
2022-10-05T03:52:10.626Z,99055.06
2022-10-05T03:54:43.481Z,99056.69
2022-10-05T03:57:17.149Z,99051.28
2022-10-05T03:59:57.992Z,99040.19
2022-10-05T04:02:58.135Z,99041.53
2022-10-05T04:05:34.763Z,99039.63
2022-10-05T04:08:33.987Z,99050.19
2022-10-05T04:11:06.464Z,99044.78
2022-10-05T04:13:47.273Z,99048.31
2022-10-05T04:16:34.545Z,99048.84
2022-10-05T04:19:33.083Z,99045.06
2022-10-05T04:22:23.212Z,99041.56
2022-10-05T04:24:55.074Z,99038.84
2022-10-05T04:27:27.095Z,99044.25
2022-10-05T04:30:17.613Z,99035.06
2022-10-05T04:32:54.501Z,99035.88
2022-10-05T04:35:56.385Z,99041.53
2022-10-05T04:38:50.811Z,99035.84
2022-10-05T04:41:35.225Z,99035.03
2022-10-05T04:44:04.534Z,99039.41
2022-10-05T04:46:33.953Z,99043.72
2022-10-05T04:49:45.581Z,99039.41
2022-10-05T04:52:30.819Z,99037.75
2022-10-05T04:55:16.355Z,99039.94
2022-10-05T04:57:45.797Z,99048.59
2022-10-05T05:00:23.145Z,99049.66
2022-10-05T05:03:10.150Z,99053.44
2022-10-05T05:06:12.443Z,99061.56
2022-10-05T05:09:06.252Z,99066.16
2022-10-05T05:12:04.882Z,99079.69
2022-10-05T05:15:01.043Z,99080.75
2022-10-05T05:17:47.136Z,99083.19
2022-10-05T05:20:45.059Z,99083.19
2022-10-05T05:23:37.910Z,99078.31
2022-10-05T05:26:23.720Z,99085.88
2022-10-05T05:28:58.625Z,99077.22
2022-10-05T05:31:37.382Z,99092.91
2022-10-05T05:34:31.945Z,99085.34
2022-10-05T05:37:07.359Z,99093.19
2022-10-05T05:39:46.299Z,99088.59
2022-10-05T05:42:47.424Z,99094.53
2022-10-05T05:45:33.787Z,99097.22
2022-10-05T05:48:12.578Z,99092.91
2022-10-05T05:50:55.260Z,99102.41
2022-10-05T05:53:31.448Z,99109.16
2022-10-05T05:56:26.040Z,99103.75
2022-10-05T05:59:21.521Z,99109.69
2022-10-05T06:01:52.316Z,99113.50
2022-10-05T06:04:25.322Z,99118.34
2022-10-05T06:06:54.286Z,99113.50
2022-10-05T06:09:33.650Z,99115.13
2022-10-05T06:12:06.915Z,99118.91
2022-10-05T06:14:58.092Z,99120.00
2022-10-05T06:17:47.153Z,99133.53
2022-10-05T06:20:26.261Z,99134.59
2022-10-05T06:22:58.769Z,99132.72
2022-10-05T06:25:49.629Z,99138.66
2022-10-05T06:28:16.387Z,99154.63
2022-10-05T06:31:06.440Z,99157.34
2022-10-05T06:33:44.733Z,99150.06
2022-10-05T06:36:30.316Z,99156.81
2022-10-05T06:39:32.708Z,99150.84
2022-10-05T06:42:35.483Z,99158.69
2022-10-05T06:45:07.948Z,99157.63
2022-10-05T06:48:04.319Z,99154.63
2022-10-05T06:50:46.684Z,99158.13
2022-10-05T06:53:36.588Z,99162.69
2022-10-05T06:56:17.420Z,99159.19
2022-10-05T06:59:08.781Z,99161.59
2022-10-05T07:02:04.801Z,99166.44
2022-10-05T07:04:53.185Z,99165.88
2022-10-05T07:07:37.755Z,99161.75
2022-10-05T07:10:07.560Z,99165.22
2022-10-05T07:12:52.648Z,99164.09
2022-10-05T07:15:26.329Z,99167.28
2022-10-05T07:18:11.448Z,99167.06
2022-10-05T07:21:17.551Z,99174.34
2022-10-05T07:24:04.658Z,99166.75
2022-10-05T07:26:37.153Z,99165.38
2022-10-05T07:29:17.651Z,99165.59
2022-10-05T07:32:02.385Z,99172.91
2022-10-05T07:34:36.282Z,99165.59
2022-10-05T07:37:46.186Z,99168.31
2022-10-05T07:40:23.867Z,99174.78
2022-10-05T07:43:12.252Z,99170.69
2022-10-05T07:45:45.483Z,99173.59
2022-10-05T07:48:35.771Z,99176.25
2022-10-05T07:51:25.799Z,99173.22
2022-10-05T07:54:07.236Z,99185.91
2022-10-05T07:56:40.320Z,99184.19
2022-10-05T07:59:16.737Z,99189.31
2022-10-05T08:01:52.446Z,99185.97
2022-10-05T08:04:25.353Z,99184.59
2022-10-05T08:07:02.406Z,99183.97
2022-10-05T08:09:47.334Z,99186.88
2022-10-05T08:12:29.032Z,99178.38
2022-10-05T08:15:07.639Z,99181.06
2022-10-05T08:17:54.620Z,99182.09
2022-10-05T08:20:56.483Z,99177.72
2022-10-05T08:23:36.223Z,99182.00
2022-10-05T08:26:45.009Z,99178.34
2022-10-05T08:29:30.044Z,99172.00
2022-10-05T08:32:01.969Z,99171.88
2022-10-05T08:34:38.415Z,99176.66
2022-10-05T08:37:13.407Z,99176.31
2022-10-05T08:39:48.405Z,99171.56
2022-10-05T08:42:23.611Z,99165.75
2022-10-05T08:45:14.965Z,99157.22
2022-10-05T08:48:11.722Z,99159.00
2022-10-05T08:50:56.347Z,99158.03
2022-10-05T08:53:58.681Z,99156.31
2022-10-05T08:56:28.815Z,99155.84
2022-10-05T08:59:18.190Z,99151.53
2022-10-05T09:02:05.006Z,99157.03
2022-10-05T09:04:37.449Z,99149.44
2022-10-05T09:07:17.189Z,99155.72
2022-10-05T09:09:49.758Z,99149.19
2022-10-05T09:12:31.086Z,99152.75
2022-10-05T09:15:24.709Z,99146.69
2022-10-05T09:18:14.310Z,99142.47
2022-10-05T09:20:55.206Z,99143.25
2022-10-05T09:23:38.580Z,99145.97
2022-10-05T09:26:29.581Z,99135.03
2022-10-05T09:29:27.900Z,99138.69
2022-10-05T09:32:36.385Z,99134.56
2022-10-05T09:35:27.525Z,99134.56
2022-10-05T09:38:31.878Z,99134.38
2022-10-05T09:41:07.416Z,99120.63
2022-10-05T09:43:59.185Z,99122.78
2022-10-05T09:46:31.750Z,99115.47
2022-10-05T09:49:20.529Z,99122.25
2022-10-05T09:52:02.638Z,99113.81
2022-10-05T09:54:50.211Z,99113.84
2022-10-05T09:57:35.741Z,99105.28
2022-10-05T10:00:30.327Z,99101.59
2022-10-05T10:03:35.832Z,99096.25
2022-10-05T10:06:33.014Z,99095.13
2022-10-05T10:09:18.590Z,99092.53
2022-10-05T10:12:22.624Z,99088.28
2022-10-05T10:15:13.922Z,99080.78
2022-10-05T10:18:05.969Z,99080.22
2022-10-05T10:20:57.446Z,99079.19
2022-10-05T10:23:45.526Z,99072.66
2022-10-05T10:26:36.976Z,99068.72
2022-10-05T10:29:24.755Z,99069.25
2022-10-05T10:32:14.481Z,99062.25
2022-10-05T10:35:04.329Z,99069.38
2022-10-05T10:37:59.815Z,99057.59
2022-10-05T10:41:09.611Z,99064.50
2022-10-05T10:44:02.195Z,99053.34
2022-10-05T10:47:01.088Z,99051.34
2022-10-05T10:49:46.539Z,99044.22
2022-10-05T10:52:15.951Z,99042.97
2022-10-05T10:55:01.170Z,99030.69
2022-10-05T10:57:31.521Z,99031.28
2022-10-05T11:00:19.996Z,99032.75
2022-10-05T11:03:23.939Z,99029.66
2022-10-05T11:06:11.685Z,99017.59
2022-10-05T11:08:54.761Z,99016.41
2022-10-05T11:12:05.615Z,99020.19
2022-10-05T11:14:54.129Z,99012.31
2022-10-05T11:17:33.616Z,99004.72
2022-10-05T11:20:04.386Z,99009.97
2022-10-05T11:23:19.302Z,99002.78
2022-10-05T11:26:04.760Z,99001.06
2022-10-05T11:28:47.585Z,98995.81
2022-10-05T11:31:32.945Z,98999.13
2022-10-05T11:34:37.831Z,98985.53
2022-10-05T11:37:22.573Z,98980.47
2022-10-05T11:40:38.708Z,98977.16
2022-10-05T11:43:26.892Z,98977.97
2022-10-05T11:46:20.112Z,98979.94
2022-10-05T11:49:26.828Z,98980.53
2022-10-05T11:52:35.727Z,98970.13
2022-10-05T11:55:26.764Z,98971.44
2022-10-05T11:58:26.854Z,98954.59
2022-10-05T12:01:05.631Z,98962.88
2022-10-05T12:04:11.574Z,98956.56
2022-10-05T12:07:09.118Z,98944.88
2022-10-05T12:10:17.469Z,98949.38
2022-10-05T12:13:08.689Z,98949.31
2022-10-05T12:15:57.585Z,98953.16
2022-10-05T12:19:10.440Z,98955.38
2022-10-05T12:21:47.815Z,98947.09
2022-10-05T12:24:26.534Z,98944.91
2022-10-05T12:27:09.828Z,98939.53
2022-10-05T12:29:39.696Z,98926.72
2022-10-05T12:32:21.710Z,98938.47
2022-10-05T12:35:01.823Z,98939.84
2022-10-05T12:37:47.236Z,98924.44
2022-10-05T12:40:40.641Z,98921.38
2022-10-05T12:43:37.350Z,98915.06
2022-10-05T12:46:25.788Z,98919.03
2022-10-05T12:49:20.124Z,98930.22
2022-10-05T12:52:01.174Z,98919.22
2022-10-05T12:54:59.145Z,98917.81
2022-10-05T12:57:54.134Z,98906.88
2022-10-05T13:00:23.206Z,98910.09
2022-10-05T13:02:57.412Z,98910.44
2022-10-05T13:05:29.973Z,98899.81
2022-10-05T13:08:12.834Z,98903.41
2022-10-05T13:10:58.866Z,98898.13
2022-10-05T13:13:34.311Z,98903.97
2022-10-05T13:16:28.650Z,98901.81
2022-10-05T13:19:19.556Z,98896.16
2022-10-05T13:21:46.006Z,98896.16
2022-10-05T13:24:20.534Z,98893.06
2022-10-05T13:26:53.963Z,98890.75
2022-10-05T13:29:38.695Z,98884.03
2022-10-05T13:32:24.531Z,98887.66
2022-10-05T13:35:00.947Z,98897.28
2022-10-05T13:37:46.017Z,98887.75
2022-10-05T13:40:43.893Z,98889.34
2022-10-05T13:43:29.752Z,98887.78
2022-10-05T13:46:07.400Z,98895.84
2022-10-05T13:49:10.889Z,98885.03
2022-10-05T13:51:55.254Z,98891.28
2022-10-05T13:54:51.184Z,98887.06
2022-10-05T13:57:45.385Z,98875.56
2022-10-05T14:00:26.622Z,98876.50
2022-10-05T14:02:56.774Z,98880.25
2022-10-05T14:05:29.291Z,98887.50
2022-10-05T14:08:02.817Z,98872.47
2022-10-05T14:10:40.865Z,98876.38
2022-10-05T14:13:21.603Z,98882.59
2022-10-05T14:16:08.035Z,98878.59
2022-10-05T14:18:37.783Z,98876.63
2022-10-05T14:21:19.522Z,98881.75
2022-10-05T14:23:47.182Z,98884.50
2022-10-05T14:26:26.137Z,98879.63
2022-10-05T14:29:00.307Z,98882.50
2022-10-05T14:31:31.002Z,98884.97
2022-10-05T14:34:00.021Z,98881.81
2022-10-05T14:36:36.114Z,98880.31
2022-10-05T14:39:05.048Z,98878.91
2022-10-05T14:41:37.235Z,98883.06
2022-10-05T14:44:28.926Z,98886.91
2022-10-05T14:47:02.702Z,98878.19
2022-10-05T14:49:33.192Z,98885.38
2022-10-05T14:51:59.648Z,98887.00
2022-10-05T14:54:42.714Z,98884.53
2022-10-05T14:57:32.145Z,98881.63
2022-10-05T15:00:10.639Z,98879.66
2022-10-05T15:03:16.703Z,98880.88
2022-10-05T15:05:55.672Z,98888.47
2022-10-05T15:08:48.341Z,98882.00
2022-10-05T15:11:34.397Z,98878.72
2022-10-05T15:14:06.655Z,98883.31
2022-10-05T15:16:38.220Z,98876.84
2022-10-05T15:19:12.767Z,98878.34
2022-10-05T15:21:55.209Z,98879.13
2022-10-05T15:24:31.057Z,98881.63
2022-10-05T15:27:01.267Z,98883.59
2022-10-05T15:30:09.639Z,98882.78
2022-10-05T15:32:48.552Z,98883.06
2022-10-05T15:38:50.008Z,98881.59
2022-10-05T15:41:23.356Z,98883.28
2022-10-05T15:43:58.500Z,98880.28
2022-10-05T15:46:49.584Z,98880.84
2022-10-05T15:49:19.115Z,98879.69
2022-10-05T15:52:02.357Z,98885.59
2022-10-05T15:55:07.165Z,98880.38
2022-10-05T15:57:58.229Z,98887.84
2022-10-05T16:00:29.189Z,98891.47
2022-10-05T16:03:04.220Z,98901.25
2022-10-05T16:05:59.470Z,98896.72
2022-10-05T16:11:46.044Z,98902.91
2022-10-05T16:14:28.967Z,98902.13
2022-10-05T16:17:08.708Z,98897.22
2022-10-05T16:20:09.386Z,98907.16
2022-10-05T16:22:59.581Z,98905.13
2022-10-05T16:25:42.241Z,98914.09
2022-10-05T16:28:34.561Z,98914.47
2022-10-05T16:31:18.645Z,98918.75
2022-10-05T16:34:03.712Z,98918.31
2022-10-05T16:36:53.055Z,98917.06
2022-10-05T16:39:35.018Z,98918.09
2022-10-05T16:42:42.006Z,98918.06
2022-10-05T16:45:14.705Z,98933.84
2022-10-05T16:48:05.254Z,98926.16
2022-10-05T16:50:31.544Z,98934.97
2022-10-05T16:53:04.890Z,98942.53
2022-10-05T16:55:42.021Z,98950.06
2022-10-05T16:58:17.997Z,98945.91
2022-10-05T17:00:51.846Z,98948.19
2022-10-05T17:03:34.136Z,98946.31
2022-10-05T17:06:30.779Z,98946.56
2022-10-05T17:09:30.662Z,98949.06
2022-10-05T17:12:29.333Z,98958.16
2022-10-05T17:15:32.064Z,98956.44
2022-10-05T17:18:04.315Z,98963.50
2022-10-05T17:20:43.147Z,98968.72
2022-10-05T17:23:31.518Z,98979.63
2022-10-05T17:26:03.863Z,98982.44
2022-10-05T17:28:41.012Z,98979.72
2022-10-05T17:31:21.615Z,98986.06
2022-10-05T17:34:06.916Z,98984.16
2022-10-05T17:36:47.432Z,98994.06
2022-10-05T17:39:20.498Z,98998.44
2022-10-05T17:41:47.566Z,98993.13
2022-10-05T17:44:15.994Z,98997.16
2022-10-05T17:46:45.816Z,98998.47
2022-10-05T17:49:41.728Z,98999.31
2022-10-05T17:52:44.877Z,99001.75
2022-10-05T17:55:34.301Z,99003.06
2022-10-05T17:58:23.621Z,98999.53
2022-10-05T18:00:59.734Z,99005.34
2022-10-05T18:03:37.729Z,99008.75
2022-10-05T18:06:25.891Z,99005.38
2022-10-05T18:09:14.172Z,99010.88
2022-10-05T18:11:42.968Z,99020.84
2022-10-05T18:14:19.162Z,99015.84
2022-10-05T18:17:13.554Z,99019.88
2022-10-05T18:19:39.975Z,99026.97
2022-10-05T18:22:27.897Z,99021.97
2022-10-05T18:25:05.806Z,99028.91
2022-10-05T18:27:38.234Z,99033.72
2022-10-05T18:30:23.020Z,99039.19
2022-10-05T18:33:02.827Z,99034.97
2022-10-05T18:35:54.023Z,99037.88
2022-10-05T18:38:21.786Z,99048.47
2022-10-05T18:41:02.477Z,99048.78
2022-10-05T18:43:46.123Z,99048.44
2022-10-05T18:46:21.893Z,99047.78
2022-10-05T18:49:12.537Z,99049.53
2022-10-05T18:51:51.930Z,99050.97
2022-10-05T18:54:50.636Z,99052.22
2022-10-05T18:57:19.891Z,99065.72
2022-10-05T19:00:09.429Z,99055.25
2022-10-05T19:03:00.510Z,99060.06
2022-10-05T19:06:19.002Z,99069.06
2022-10-05T19:09:29.816Z,99078.69
2022-10-05T19:12:46.897Z,99083.19
2022-10-05T19:16:05.816Z,99092.31
2022-10-05T19:19:37.617Z,99096.81
2022-10-05T19:23:24.835Z,99103.34
2022-10-05T19:26:42.870Z,99107.78
2022-10-05T19:30:05.389Z,99111.47
2022-10-05T19:41:07.769Z,99128.72
2022-10-05T19:44:16.190Z,99137.22
2022-10-05T19:50:31.243Z,99152.44
2022-10-05T19:53:28.385Z,99159.63
2022-10-05T19:56:22.172Z,99149.44
2022-10-05T19:58:52.502Z,99155.81
2022-10-05T20:01:42.014Z,99166.56
2022-10-05T20:12:20.061Z,99185.88
2022-10-05T20:19:05.038Z,99191.59
2022-10-05T20:21:50.032Z,99200.66
2022-10-05T20:24:26.070Z,99193.59
2022-10-05T20:27:02.865Z,99205.91
2022-10-05T20:29:31.563Z,99209.78
2022-10-05T20:31:58.680Z,99207.34
2022-10-05T20:34:25.104Z,99212.31
2022-10-05T20:36:52.198Z,99213.22
2022-10-05T20:39:21.094Z,99224.22
2022-10-05T20:41:47.941Z,99220.50
2022-10-05T20:44:14.410Z,99226.25
2022-10-05T20:46:45.919Z,99229.59
2022-10-05T20:49:12.578Z,99231.00
2022-10-05T20:51:40.087Z,99226.44
2022-10-05T20:54:07.589Z,99233.81
2022-10-05T20:56:34.283Z,99244.81
2022-10-05T20:59:00.771Z,99244.28
2022-10-05T21:01:28.919Z,99238.84
2022-10-05T21:03:55.874Z,99249.25
2022-10-05T21:06:22.566Z,99254.19
2022-10-05T21:08:51.278Z,99257.53
2022-10-05T21:11:17.875Z,99252.38
2022-10-05T21:13:45.592Z,99258.13
2022-10-05T21:16:13.960Z,99261.94
2022-10-05T21:18:40.702Z,99259.22
2022-10-05T21:21:07.671Z,99263.88
2022-10-05T21:23:34.337Z,99270.75
2022-10-05T21:26:01.657Z,99254.38
2022-10-05T21:28:28.907Z,99262.06
2022-10-05T21:30:55.647Z,99264.47
2022-10-05T21:33:22.199Z,99268.00
2022-10-05T21:35:48.593Z,99262.06
2022-10-05T21:38:15.015Z,99272.66
2022-10-05T21:40:43.292Z,99272.84
2022-10-05T21:43:09.744Z,99278.22
2022-10-05T21:45:36.573Z,99284.72
2022-10-05T21:48:03.296Z,99281.38
2022-10-05T21:50:29.741Z,99287.59
2022-10-05T21:53:06.330Z,99285.28
2022-10-05T21:56:04.024Z,99286.81
2022-10-05T21:59:27.465Z,99292.38
2022-10-05T22:08:58.161Z,99298.97
2022-10-05T22:11:24.571Z,99290.84
2022-10-05T22:13:52.874Z,99295.31
2022-10-05T22:16:23.554Z,99301.97
2022-10-05T22:18:50.421Z,99298.63
2022-10-05T22:21:17.204Z,99300.75
2022-10-05T22:23:45.999Z,99308.03
2022-10-05T22:26:16.377Z,99304.69
2022-10-05T22:28:44.186Z,99306.63
2022-10-05T22:31:12.448Z,99303.88
2022-10-05T22:33:39.578Z,99309.22
2022-10-05T22:36:07.564Z,99313.88
2022-10-05T22:38:34.037Z,99314.09
2022-10-05T22:41:00.452Z,99314.91
2022-10-05T22:43:29.429Z,99316.22
2022-10-05T22:45:56.196Z,99316.22
2022-10-05T22:48:22.918Z,99320.28
2022-10-05T22:50:49.404Z,99321.41
2022-10-05T22:53:15.928Z,99315.13
2022-10-05T22:55:42.410Z,99324.63
2022-10-05T22:58:08.793Z,99316.94
2022-10-05T23:00:56.992Z,99329.47
2022-10-05T23:03:21.851Z,99326.47
2022-10-05T23:05:48.183Z,99330.50
2022-10-05T23:08:15.965Z,99328.25
2022-10-05T23:10:42.324Z,99323.09
2022-10-05T23:13:08.724Z,99336.13
2022-10-05T23:15:35.763Z,99341.59
2022-10-05T23:18:02.147Z,99339.72
2022-10-05T23:20:28.604Z,99344.88
2022-10-05T23:22:54.995Z,99345.34
2022-10-05T23:25:22.135Z,99344.22
2022-10-05T23:27:48.679Z,99342.31
2022-10-05T23:30:15.114Z,99343.75
2022-10-05T23:32:43.931Z,99345.19
2022-10-05T23:35:12.715Z,99347.06
2022-10-05T23:37:43.967Z,99347.38
2022-10-05T23:40:13.384Z,99341.91
2022-10-05T23:42:40.734Z,99346.91
2022-10-05T23:45:08.724Z,99349.31
2022-10-05T23:47:35.121Z,99357.84
2022-10-05T23:50:02.014Z,99358.16
2022-10-05T23:52:28.433Z,99360.34
2022-10-05T23:54:55.265Z,99364.22
2022-10-05T23:57:21.830Z,99366.44
2022-10-05T23:59:50.215Z,99369.19
